Time;durP1;ratioP1;P1;durP2;ratioP2;P2;SDS_P1;SDS_P2;PMS_P1;PMS_P2;Temp;Humidity;BMP_temperature;BMP_pressure;BME280_temperature;BME280_humidity;BME280_pressure;Samples;Min_cycle;Max_cycle;Signal;HPM_P1;HPM_P2
2023/01/15 00:09:04;;;;;;;14.90;6.80;;;;;;;6.94;100.00;99275.11;681536;1266;138701;-80
2023/01/15 00:39:30;;;;;;;16.00;7.10;;;;;;;6.88;100.00;99211.62;681458;1267;139505;-79
2023/01/15 00:54:44;;;;;;;11.10;5.50;;;;;;;6.93;100.00;99184.29;681528;1265;138732;-78
2023/01/15 01:09:47;;;;;;;14.80;6.60;;;;;;;6.97;99.45;99139.54;681487;1266;139005;-79
2023/01/15 01:24:50;;;;;;;11.90;4.50;;;;;;;7.14;97.52;99134.70;681514;1264;138312;-78
2023/01/15 01:39:55;;;;;;;11.30;3.90;;;;;;;7.34;95.66;99134.15;681911;1265;139070;-78
2023/01/15 01:55:00;;;;;;;8.20;3.60;;;;;;;8.02;90.32;99070.27;681304;1266;138208;-79
2023/01/15 02:10:05;;;;;;;8.80;4.20;;;;;;;8.18;86.71;99061.44;681711;1266;139141;-79
2023/01/15 02:25:53;;;;;;;10.00;4.00;;;;;;;8.28;85.69;99032.06;681779;1267;138177;-80
2023/01/15 02:41:00;;;;;;;10.70;4.50;;;;;;;8.34;84.56;99016.98;681724;1267;138446;-79
2023/01/15 02:56:13;;;;;;;8.10;3.70;;;;;;;8.31;83.56;98993.58;681552;1266;138690;-80
2023/01/15 03:11:21;;;;;;;5.40;3.40;;;;;;;8.41;82.63;98951.73;681537;1264;137970;-78
2023/01/15 03:26:30;;;;;;;7.50;3.50;;;;;;;8.40;81.54;98908.92;681516;1267;139205;-80
2023/01/15 03:42:04;;;;;;;7.00;3.20;;;;;;;8.55;80.25;98888.15;681553;1266;139607;-80
2023/01/15 03:57:20;;;;;;;9.80;4.80;;;;;;;8.57;79.05;98886.52;681729;1265;139813;-79
2023/01/15 04:12:26;;;;;;;8.50;3.10;;;;;;;8.66;78.24;98885.38;681681;1266;138505;-79
2023/01/15 04:27:31;;;;;;;6.90;4.00;;;;;;;8.78;77.13;98893.27;681881;1263;138178;-79
2023/01/15 04:57:56;;;;;;;10.80;4.00;;;;;;;8.73;77.00;98827.89;681444;1263;138373;-79
2023/01/15 05:12:59;;;;;;;7.10;3.50;;;;;;;8.80;77.41;98822.45;681325;1264;140815;-80
2023/01/15 05:28:03;;;;;;;7.10;4.00;;;;;;;8.66;80.80;98801.09;681555;1269;137998;-79
2023/01/15 05:43:06;;;;;;;5.30;3.80;;;;;;;8.68;82.97;98786.20;681419;1264;139465;-80
2023/01/15 05:58:10;;;;;;;5.70;3.80;;;;;;;8.67;83.30;98775.02;681460;1267;138084;-79
2023/01/15 06:13:14;;;;;;;52.60;26.90;;;;;;;8.68;84.18;98755.98;681670;1263;139045;-80
2023/01/15 06:28:17;;;;;;;10.70;5.20;;;;;;;8.59;85.04;98738.38;681684;1265;139128;-79
2023/01/15 06:58:43;;;;;;;8.60;5.40;;;;;;;8.38;89.08;98719.45;681602;1265;139726;-80
2023/01/15 07:13:47;;;;;;;7.30;4.60;;;;;;;8.38;93.83;98720.80;681252;1266;138840;-79
2023/01/15 07:28:51;;;;;;;15.60;7.40;;;;;;;8.32;99.05;98726.71;681656;1265;138913;-79
2023/01/15 07:59:16;;;;;;;41.70;19.70;;;;;;;8.06;100.00;98694.17;681496;1265;138270;-78
2023/01/15 08:29:41;;;;;;;13.80;8.00;;;;;;;7.99;100.00;98671.56;681648;1278;140000;-78
2023/01/15 08:44:44;;;;;;;14.10;8.20;;;;;;;7.98;100.00;98682.58;681748;1262;138483;-79
2023/01/15 08:59:48;;;;;;;21.90;12.70;;;;;;;8.09;100.00;98675.89;681630;1262;139865;-78
2023/01/15 09:14:51;;;;;;;12.00;8.10;;;;;;;8.32;100.00;98678.12;681567;1265;138778;-78
2023/01/15 09:30:05;;;;;;;14.80;8.60;;;;;;;8.66;100.00;98666.88;681710;1262;139215;-78
2023/01/15 09:45:17;;;;;;;10.10;7.00;;;;;;;8.97;100.00;98643.42;681655;1262;139717;-78
2023/01/15 10:00:24;;;;;;;11.90;7.70;;;;;;;9.09;100.00;98628.56;681648;1265;138975;-78
2023/01/15 10:15:47;;;;;;;9.70;6.90;;;;;;;9.25;100.00;98615.58;681544;1260;138669;-77
2023/01/15 10:30:55;;;;;;;15.20;10.60;;;;;;;9.46;100.00;98610.05;681775;1265;138361;-77
2023/01/15 10:46:27;;;;;;;8.90;5.30;;;;;;;9.60;100.00;98606.61;681879;1263;138658;-77
2023/01/15 11:01:35;;;;;;;14.70;10.40;;;;;;;9.69;100.00;98597.04;681450;1266;139442;-79
2023/01/15 11:32:03;;;;;;;13.30;8.20;;;;;;;9.71;100.00;98594.15;681590;1266;139831;-78
2023/01/15 12:17:54;;;;;;;10.30;6.80;;;;;;;9.65;100.00;98576.54;681801;1266;139702;-79
2023/01/15 12:33:16;;;;;;;7.90;4.50;;;;;;;9.26;100.00;98636.26;681944;1266;140014;-78
2023/01/15 12:48:50;;;;;;;6.80;3.90;;;;;;;8.53;100.00;98682.01;681721;1266;139021;-79
2023/01/15 13:04:02;;;;;;;8.90;4.30;;;;;;;8.20;100.00;98694.45;681809;1266;138827;-76
2023/01/15 13:19:38;;;;;;;14.00;6.80;;;;;;;7.86;100.00;98722.06;681715;1266;139610;-76
2023/01/15 13:35:09;;;;;;;14.70;6.60;;;;;;;7.67;100.00;98740.79;681874;1267;140645;-78
2023/01/15 13:50:17;;;;;;;10.60;5.00;;;;;;;7.62;100.00;98771.71;681786;1266;138552;-78
2023/01/15 14:05:32;;;;;;;113.20;37.10;;;;;;;7.51;100.00;98790.34;681807;1264;140458;-78
2023/01/15 14:20:43;;;;;;;41.20;15.40;;;;;;;7.42;100.00;98790.50;681798;1266;140277;-78
2023/01/15 14:35:47;;;;;;;7.00;4.10;;;;;;;7.44;100.00;98796.58;681936;1266;139681;-78
2023/01/15 14:50:52;;;;;;;7.30;3.50;;;;;;;7.41;100.00;98806.08;681955;1266;137856;-77
2023/01/15 15:05:56;;;;;;;8.70;5.50;;;;;;;7.33;100.00;98824.98;681786;1266;139410;-78
2023/01/15 15:21:03;;;;;;;5.20;3.30;;;;;;;7.27;100.00;98809.22;681976;1263;139613;-78
2023/01/15 15:36:08;;;;;;;10.30;4.70;;;;;;;7.25;100.00;98797.95;681770;1266;138279;-79
2023/01/15 15:51:51;;;;;;;10.70;6.20;;;;;;;7.22;100.00;98799.30;681900;1267;138345;-79
2023/01/15 16:06:55;;;;;;;14.50;7.60;;;;;;;7.06;100.00;98816.34;681717;1266;139419;-78
2023/01/15 16:21:58;;;;;;;10.90;4.70;;;;;;;7.05;100.00;98808.57;681811;1265;138227;-79
2023/01/15 16:37:02;;;;;;;10.90;5.60;;;;;;;7.04;100.00;98794.05;681700;1266;139077;-79
2023/01/15 16:52:34;;;;;;;10.30;4.00;;;;;;;7.00;100.00;98803.43;681860;1262;138547;-78
2023/01/15 17:07:37;;;;;;;9.70;4.70;;;;;;;7.03;100.00;98823.35;681700;1266;138704;-78
2023/01/15 17:22:46;;;;;;;14.40;5.70;;;;;;;6.91;100.00;98831.14;681886;1266;138428;-78
2023/01/15 17:37:50;;;;;;;10.20;6.50;;;;;;;6.80;100.00;98884.08;681606;1266;138244;-79
2023/01/15 17:52:53;;;;;;;15.90;9.70;;;;;;;6.80;100.00;98937.80;681824;1274;138819;-78
2023/01/15 18:07:59;;;;;;;11.80;6.60;;;;;;;6.76;100.00;98947.23;681806;1266;138521;-77
2023/01/15 18:23:04;;;;;;;13.90;7.00;;;;;;;6.69;100.00;98961.09;681545;1266;138765;-78
2023/01/15 18:38:07;;;;;;;12.50;6.90;;;;;;;6.66;100.00;98947.73;681522;1266;139520;-79
2023/01/15 18:53:11;;;;;;;15.80;8.20;;;;;;;6.71;100.00;98961.26;681643;1270;138242;-78
2023/01/15 19:08:16;;;;;;;11.90;6.70;;;;;;;6.71;100.00;98960.33;681740;1264;139064;-79
2023/01/15 19:23:21;;;;;;;13.50;8.00;;;;;;;6.63;100.00;98960.55;681639;1267;139345;-79
2023/01/15 19:38:27;;;;;;;17.00;7.40;;;;;;;6.54;100.00;98968.67;681683;1264;138745;-78
2023/01/15 19:53:45;;;;;;;10.60;5.80;;;;;;;6.47;100.00;98962.52;681652;1276;139978;-79
2023/01/15 20:08:51;;;;;;;10.40;6.10;;;;;;;6.45;100.00;98960.42;681631;1263;138194;-78
2023/01/15 20:23:55;;;;;;;11.90;6.90;;;;;;;6.29;100.00;98956.72;681416;1266;138150;-78
2023/01/15 20:39:00;;;;;;;13.50;6.70;;;;;;;6.16;100.00;98967.45;681382;1266;139102;-77
2023/01/15 20:54:04;;;;;;;12.10;6.40;;;;;;;6.09;100.00;98994.44;681675;1264;138163;-79
2023/01/15 21:09:07;;;;;;;9.90;5.30;;;;;;;6.01;100.00;98994.30;681570;1263;139912;-78
2023/01/15 21:24:10;;;;;;;10.00;5.70;;;;;;;5.94;100.00;98986.54;681363;1266;157513;-78
2023/01/15 21:39:15;;;;;;;10.60;5.00;;;;;;;5.94;100.00;98988.95;681445;1264;139711;-79
2023/01/15 21:54:19;;;;;;;9.60;5.20;;;;;;;5.90;100.00;98979.10;681408;1265;138406;-78
2023/01/15 22:09:22;;;;;;;11.30;5.60;;;;;;;5.88;100.00;98965.07;681559;1267;138119;-79
2023/01/15 22:24:27;;;;;;;9.70;5.00;;;;;;;5.84;100.00;98954.79;681599;1266;138342;-79
2023/01/15 22:39:31;;;;;;;10.30;4.80;;;;;;;5.82;100.00;98949.27;681342;1267;138185;-79
2023/01/15 22:54:34;;;;;;;8.70;5.30;;;;;;;5.72;100.00;98946.11;683095;1262;139815;-79
2023/01/15 23:09:37;;;;;;;9.30;4.60;;;;;;;5.68;100.00;98948.95;682927;1262;138998;-77
2023/01/15 23:24:41;;;;;;;12.70;5.30;;;;;;;5.62;99.95;98943.77;683105;1262;138945;-79
2023/01/15 23:39:44;;;;;;;9.70;4.10;;;;;;;5.56;98.70;98932.79;682965;1266;139147;-79
2023/01/15 23:54:47;;;;;;;6.40;3.00;;;;;;;5.51;97.49;98940.73;682934;1262;138063;-79
